Lovell Field
KCHA : now visible

Airfield :











YOU CAN JOIN US ON...

 
LOGIN :

Register | Disclaimer

   EN    FR    IT 

 









Legend :    VFR   Marginal VFR   IFR   Intensive IFR   Very Intensive IFR
Visi :
Ceiling :
>= 8 km
>= 3000ft
5 to 8 km
1000 to 3000 ft
1500m to 5 km
500 to 1000 ft
800 to 1500m
200 to 500 ft
< 800m
< 200 ft
Symbols :   Thunderstorms  Fog  Heavy snow  Heavy precipitations  Wind > 20 kt






- Airport Elevation : 683 ft
- IATA code : CHA


KCHA - Lovell Field

CURRENT METAR :
  • 291153Z 00000KT 10SM OVC020 24/19 A3022 RMK AO2 SLP224 T02390194 10239 20228 53012 $

EXPIRED METARs :
  • 291053Z 00000KT 10SM OVC019 23/19 A3020 RMK AO2 SLP217 T02330194 $
  • 290953Z 00000KT 10SM BKN020 23/19 A3019 RMK AO2 SLP214 T02330194 $

TAF KCHA
Valid from the 29 at 12:00 until the 30 at 12:00 UTC


291129Z 2912/3012 00000KT P6SM BKN020
FM291500 VRB03KT P6SM VCSH BKN035
FM292000 VRB03KT P6SM VCTS BKN050CB
FM292300 15004KT P6SM SCT050 BKN120
KZTL FIR / North America



MET'MAP, your aeronautical weather chart ! - Copyright ORBIFLY December 2007 - Disclaimer

ORBIFLY MET'MAP TEAM :

Programming & Development : Alexandra Zaïnal
Original concept : Baudouin d'Aumeries
Technical & hardware support : Manuel Goepfert
Assistance : Marc-Olivier Méhu




SOURCES & CREDITS :

   NOAA       Earth
Advisory